createdAt,value
2022-12-24T00:01:04.068Z,37
2022-12-24T00:02:11.251Z,52
2022-12-24T00:03:18.536Z,40
2022-12-24T00:04:25.270Z,36
2022-12-24T00:05:32.418Z,36
2022-12-24T00:06:39.522Z,33
2022-12-24T00:07:46.706Z,44
2022-12-24T00:08:53.949Z,47
2022-12-24T00:10:01.095Z,43
2022-12-24T00:11:08.368Z,36
2022-12-24T00:12:15.398Z,46
2022-12-24T00:13:22.466Z,41
2022-12-24T00:14:29.367Z,47
2022-12-24T00:15:36.470Z,49
2022-12-24T00:16:43.821Z,44
2022-12-24T00:17:50.877Z,45
2022-12-24T00:18:58.046Z,55
2022-12-24T00:20:05.169Z,50
2022-12-24T00:21:12.348Z,50
2022-12-24T00:22:19.476Z,54
2022-12-24T00:23:26.339Z,47
2022-12-24T00:24:33.571Z,46
2022-12-24T00:25:40.668Z,54
2022-12-24T00:26:47.748Z,56
2022-12-24T00:27:54.951Z,46
2022-12-24T00:29:02.115Z,55
2022-12-24T00:30:09.394Z,47
2022-12-24T00:31:16.558Z,52
2022-12-24T00:32:23.574Z,55
2022-12-24T00:33:30.892Z,48
2022-12-24T00:34:38.102Z,42
2022-12-24T00:35:45.227Z,45
2022-12-24T00:36:52.484Z,47
2022-12-24T00:37:59.736Z,36
2022-12-24T00:39:06.691Z,36
2022-12-24T00:40:13.951Z,33
2022-12-24T00:41:21.019Z,38
2022-12-24T00:42:30.992Z,39
2022-12-24T00:43:38.111Z,36
2022-12-24T00:44:45.374Z,38
2022-12-24T00:45:52.507Z,34
2022-12-24T00:46:59.610Z,45
2022-12-24T00:48:06.828Z,37
2022-12-24T00:49:13.934Z,49
2022-12-24T00:50:21.216Z,45
2022-12-24T00:51:28.627Z,50
2022-12-24T00:52:35.632Z,46
2022-12-24T00:53:42.817Z,52
2022-12-24T00:54:49.921Z,50
2022-12-24T00:55:57.171Z,47
2022-12-24T00:57:04.416Z,45
2022-12-24T00:58:11.532Z,45
2022-12-24T00:59:18.595Z,43
2022-12-24T01:00:25.490Z,43
2022-12-24T01:01:32.831Z,48
2022-12-24T01:02:40.008Z,47
2022-12-24T01:03:47.152Z,44
2022-12-24T01:04:54.206Z,47
2022-12-24T01:06:06.616Z,55
2022-12-24T01:07:19.180Z,43
2022-12-24T01:08:26.062Z,37
2022-12-24T01:09:33.333Z,48
2022-12-24T01:10:40.362Z,47
2022-12-24T01:11:47.529Z,45
2022-12-24T01:12:54.611Z,43
2022-12-24T01:14:01.870Z,39
2022-12-24T01:15:09.054Z,41
2022-12-24T01:16:16.280Z,45
2022-12-24T01:17:23.277Z,51
2022-12-24T01:18:30.146Z,45
2022-12-24T01:19:37.319Z,39
2022-12-24T01:20:44.516Z,44
2022-12-24T01:21:51.673Z,40
2022-12-24T01:22:58.868Z,33
2022-12-24T01:24:06.026Z,41
2022-12-24T01:25:13.194Z,38
2022-12-24T01:26:20.243Z,42
2022-12-24T01:27:27.287Z,49
2022-12-24T01:28:34.407Z,46
2022-12-24T01:29:41.473Z,41
2022-12-24T01:30:48.624Z,44
2022-12-24T01:31:55.822Z,42
2022-12-24T01:33:02.915Z,50
2022-12-24T01:34:10.149Z,48
2022-12-24T01:35:17.283Z,45
2022-12-24T01:36:24.076Z,45
2022-12-24T01:37:31.210Z,50
2022-12-24T01:38:38.417Z,47
2022-12-24T01:39:45.555Z,53
2022-12-24T01:40:52.839Z,55
2022-12-24T01:42:05.050Z,55
2022-12-24T01:43:22.521Z,47
2022-12-24T01:44:35.487Z,53
2022-12-24T01:45:36.775Z,54
2022-12-24T01:46:54.641Z,44
2022-12-24T01:48:11.769Z,49
2022-12-24T01:49:26.813Z,50
2022-12-24T01:50:34.029Z,47
2022-12-24T01:51:41.134Z,56
2022-12-24T01:52:48.332Z,46
2022-12-24T01:53:55.442Z,50
2022-12-24T01:55:02.762Z,46
2022-12-24T01:56:09.956Z,56
2022-12-24T01:57:17.049Z,58
2022-12-24T01:58:29.521Z,61
2022-12-24T01:59:36.565Z,56
2022-12-24T02:00:43.733Z,60
2022-12-24T02:01:51.017Z,51
2022-12-24T02:02:58.168Z,61
2022-12-24T02:04:05.147Z,49
2022-12-24T02:05:12.469Z,57
2022-12-24T02:06:29.923Z,50
2022-12-24T02:07:37.074Z,57
2022-12-24T02:08:44.299Z,59
2022-12-24T02:09:51.502Z,57
2022-12-24T02:10:58.635Z,44
2022-12-24T02:12:05.950Z,55
2022-12-24T02:13:12.793Z,51
2022-12-24T02:14:19.945Z,51
2022-12-24T02:15:26.889Z,53
2022-12-24T02:16:34.271Z,58
2022-12-24T02:17:48.809Z,51
2022-12-24T02:19:02.049Z,60
2022-12-24T02:20:14.444Z,57
2022-12-24T02:21:31.861Z,71
2022-12-24T02:22:44.150Z,69
2022-12-24T02:24:01.639Z,80
2022-12-24T02:25:16.425Z,81
2022-12-24T02:26:30.955Z,76
2022-12-24T02:27:43.245Z,80
2022-12-24T02:28:52.905Z,86
2022-12-24T02:30:10.277Z,89
2022-12-24T02:31:22.769Z,89
2022-12-24T02:32:32.577Z,85
2022-12-24T02:33:45.328Z,91
2022-12-24T02:35:00.125Z,96
2022-12-24T02:36:10.334Z,89
2022-12-24T02:37:17.460Z,99
2022-12-24T02:38:26.854Z,100
2022-12-24T02:39:36.573Z,101
2022-12-24T02:40:49.345Z,99
2022-12-24T02:41:59.683Z,99
2022-12-24T02:43:12.075Z,102
2022-12-24T02:44:19.101Z,106
2022-12-24T02:45:26.328Z,107
2022-12-24T02:46:33.590Z,99
2022-12-24T02:47:40.713Z,107
2022-12-24T02:48:47.845Z,102
2022-12-24T02:49:55.141Z,98
2022-12-24T02:51:02.189Z,110
2022-12-24T02:52:09.330Z,101
2022-12-24T02:53:26.852Z,101
2022-12-24T02:54:34.308Z,91
2022-12-24T02:55:41.333Z,105
2022-12-24T02:56:48.477Z,95
2022-12-24T02:58:01.230Z,98
2022-12-24T02:59:13.552Z,100
2022-12-24T03:00:31.053Z,92
2022-12-24T03:01:48.500Z,99
2022-12-24T03:03:05.844Z,91
2022-12-24T03:04:23.097Z,95
2022-12-24T03:05:35.587Z,93
2022-12-24T03:06:48.328Z,88
2022-12-24T03:08:03.121Z,95
2022-12-24T03:09:10.421Z,99
2022-12-24T03:10:27.827Z,89
2022-12-24T03:11:40.612Z,87
2022-12-24T03:12:47.804Z,92
2022-12-24T03:13:54.928Z,92
2022-12-24T03:15:02.189Z,91
2022-12-24T03:16:09.873Z,91
2022-12-24T03:17:17.040Z,89
2022-12-24T03:18:24.144Z,90
2022-12-24T03:19:30.923Z,86
2022-12-24T03:20:38.197Z,93
2022-12-24T03:21:48.374Z,92
2022-12-24T03:22:55.516Z,86
2022-12-24T03:24:02.722Z,88
2022-12-24T03:25:09.856Z,84
2022-12-24T03:26:17.077Z,89
2022-12-24T03:27:24.176Z,90
2022-12-24T03:28:31.077Z,86
2022-12-24T03:29:38.222Z,87
2022-12-24T03:30:45.448Z,86
2022-12-24T03:31:52.712Z,85
2022-12-24T03:32:59.684Z,91
2022-12-24T03:34:06.838Z,84
2022-12-24T03:35:14.024Z,85
2022-12-24T03:36:21.179Z,83
2022-12-24T03:37:28.152Z,84
2022-12-24T03:38:35.127Z,82
2022-12-24T03:39:42.368Z,78
2022-12-24T03:40:49.582Z,77
2022-12-24T03:41:56.658Z,79
2022-12-24T03:43:03.846Z,82
2022-12-24T03:44:11.088Z,82
2022-12-24T03:45:18.209Z,82
2022-12-24T03:46:25.012Z,85
2022-12-24T03:47:32.152Z,89
2022-12-24T03:48:39.292Z,90
2022-12-24T03:49:46.526Z,90
2022-12-24T03:50:53.765Z,93
2022-12-24T03:52:00.904Z,86
2022-12-24T03:53:07.956Z,85
2022-12-24T03:54:15.120Z,93
2022-12-24T03:55:22.211Z,84
2022-12-24T03:56:29.095Z,87
2022-12-24T03:57:36.157Z,82
2022-12-24T03:58:43.380Z,84
2022-12-24T03:59:50.536Z,84
2022-12-24T04:00:57.766Z,85
2022-12-24T04:02:05.073Z,79
2022-12-24T04:03:12.085Z,76
2022-12-24T04:04:19.208Z,77
2022-12-24T04:05:26.041Z,76
2022-12-24T04:06:33.177Z,77
2022-12-24T04:07:40.349Z,68
2022-12-24T04:08:47.518Z,82
2022-12-24T04:09:54.757Z,68
2022-12-24T04:11:06.264Z,61
2022-12-24T04:12:09.073Z,64
2022-12-24T04:13:16.188Z,66
2022-12-24T04:14:23.359Z,66
2022-12-24T04:15:30.285Z,70
2022-12-24T04:16:37.650Z,67
2022-12-24T04:17:44.525Z,75
2022-12-24T04:18:51.660Z,76
2022-12-24T04:19:59.030Z,70
2022-12-24T04:21:06.289Z,67
2022-12-24T04:22:13.329Z,72
2022-12-24T04:23:20.266Z,71
2022-12-24T04:24:27.091Z,81
2022-12-24T04:25:34.336Z,72
2022-12-24T04:26:41.467Z,77
2022-12-24T04:27:48.615Z,72
2022-12-24T04:28:55.879Z,65
2022-12-24T04:30:03.013Z,77
2022-12-24T04:31:10.703Z,71
2022-12-24T04:32:17.903Z,71
2022-12-24T04:33:24.710Z,79
2022-12-24T04:34:31.736Z,74
2022-12-24T04:35:38.975Z,85
2022-12-24T04:36:46.128Z,90
2022-12-24T04:37:53.244Z,82
2022-12-24T04:39:00.374Z,88
2022-12-24T04:40:07.623Z,89
2022-12-24T04:41:20.677Z,92
2022-12-24T04:42:22.032Z,95
2022-12-24T04:43:29.426Z,103
2022-12-24T04:44:36.453Z,106
2022-12-24T04:45:43.672Z,105
2022-12-24T04:46:50.707Z,105
2022-12-24T04:47:58.024Z,112
2022-12-24T04:49:05.092Z,114
2022-12-24T04:50:12.160Z,115
2022-12-24T04:51:19.398Z,105
2022-12-24T04:52:26.187Z,116
2022-12-24T04:53:33.360Z,117
2022-12-24T04:54:40.741Z,116
2022-12-24T04:55:47.683Z,121
2022-12-24T04:56:54.973Z,123
2022-12-24T04:58:01.961Z,124
2022-12-24T04:59:09.212Z,123
2022-12-24T05:00:16.414Z,120
2022-12-24T05:01:23.789Z,119
2022-12-24T05:02:31.213Z,121
2022-12-24T05:03:38.056Z,118
2022-12-24T05:04:45.347Z,117
2022-12-24T05:05:56.520Z,112
2022-12-24T05:06:59.569Z,109
2022-12-24T05:08:06.920Z,113
2022-12-24T05:09:13.948Z,113
2022-12-24T05:10:21.039Z,117
2022-12-24T05:11:27.912Z,112
2022-12-24T05:12:35.088Z,107
2022-12-24T05:13:46.453Z,116
2022-12-24T05:14:49.573Z,119
2022-12-24T05:15:56.636Z,112
2022-12-24T05:17:03.788Z,108
2022-12-24T05:18:11.105Z,109
2022-12-24T05:19:17.970Z,108
2022-12-24T05:20:24.860Z,106
2022-12-24T05:21:32.084Z,109
2022-12-24T05:22:39.311Z,113
2022-12-24T05:23:52.280Z,106
2022-12-24T05:25:04.229Z,108
2022-12-24T05:26:16.507Z,104
2022-12-24T05:27:31.730Z,108
2022-12-24T05:28:38.723Z,113
2022-12-24T05:29:45.813Z,114
2022-12-24T05:30:53.043Z,111
2022-12-24T05:32:00.206Z,107
2022-12-24T05:33:07.327Z,106
2022-12-24T05:34:14.505Z,109
2022-12-24T05:35:21.633Z,113
2022-12-24T05:36:28.487Z,111
2022-12-24T05:37:35.656Z,111
2022-12-24T05:38:42.880Z,108
2022-12-24T05:39:49.964Z,106
2022-12-24T05:40:57.118Z,103
2022-12-24T05:42:04.275Z,101
2022-12-24T05:43:11.410Z,105
2022-12-24T05:44:18.488Z,100
2022-12-24T05:45:25.525Z,101
2022-12-24T05:46:32.864Z,97
2022-12-24T05:47:43.359Z,98
2022-12-24T05:48:46.895Z,97
2022-12-24T05:49:54.990Z,96
2022-12-24T05:51:02.239Z,97
2022-12-24T05:52:09.495Z,96
2022-12-24T05:53:16.670Z,91
2022-12-24T05:54:23.570Z,91
2022-12-24T05:55:30.548Z,92
2022-12-24T05:56:37.602Z,92
2022-12-24T05:57:44.810Z,91
2022-12-24T05:58:51.984Z,86
2022-12-24T05:59:59.156Z,88
2022-12-24T06:01:06.280Z,85
2022-12-24T06:02:14.325Z,87
2022-12-24T06:03:21.528Z,94
2022-12-24T06:04:29.359Z,85
2022-12-24T06:05:35.659Z,89
2022-12-24T06:06:42.699Z,85
2022-12-24T06:07:49.859Z,86
2022-12-24T06:08:57.024Z,83
2022-12-24T06:10:04.205Z,86
2022-12-24T06:11:11.870Z,85
2022-12-24T06:12:19.368Z,84
2022-12-24T06:13:26.403Z,77
2022-12-24T06:14:33.518Z,77
2022-12-24T06:15:40.769Z,83
2022-12-24T06:16:47.873Z,79
2022-12-24T06:17:54.997Z,76
2022-12-24T06:19:02.195Z,78
2022-12-24T06:20:09.311Z,73
2022-12-24T06:21:16.441Z,75
2022-12-24T06:22:23.626Z,71
2022-12-24T06:23:30.450Z,67
2022-12-24T06:24:37.617Z,68
2022-12-24T06:25:44.931Z,68
2022-12-24T06:26:51.834Z,67
2022-12-24T06:27:59.085Z,73
2022-12-24T06:29:06.214Z,70
2022-12-24T06:30:13.273Z,68
2022-12-24T06:31:20.670Z,74
2022-12-24T06:32:27.906Z,67
2022-12-24T06:33:35.024Z,64
2022-12-24T06:34:42.179Z,63
2022-12-24T06:35:49.356Z,64
2022-12-24T06:36:56.450Z,57
2022-12-24T06:38:03.635Z,56
2022-12-24T06:39:10.877Z,55
2022-12-24T06:40:17.959Z,60
2022-12-24T06:41:24.742Z,55
2022-12-24T06:42:31.895Z,49
2022-12-24T06:43:39.095Z,58
2022-12-24T06:44:51.374Z,58
2022-12-24T06:45:58.581Z,59
2022-12-24T06:47:05.779Z,58
2022-12-24T06:48:12.826Z,57
2022-12-24T06:49:19.896Z,55
2022-12-24T06:50:26.707Z,51
2022-12-24T06:51:33.877Z,49
2022-12-24T06:52:41.094Z,55
2022-12-24T06:53:48.312Z,49
2022-12-24T06:54:55.446Z,45
2022-12-24T06:56:02.583Z,44
2022-12-24T06:57:09.706Z,43
2022-12-24T06:58:16.758Z,41
2022-12-24T06:59:23.986Z,47
2022-12-24T07:00:31.046Z,47
2022-12-24T07:01:38.066Z,49
2022-12-24T07:02:45.107Z,46
2022-12-24T07:03:52.348Z,49
2022-12-24T07:04:59.415Z,48
2022-12-24T07:06:06.643Z,43
2022-12-24T07:07:23.914Z,43
2022-12-24T07:08:30.771Z,39
2022-12-24T07:09:37.922Z,42
2022-12-24T07:10:49.001Z,47
2022-12-24T07:11:52.593Z,36
2022-12-24T07:12:59.386Z,34
2022-12-24T07:14:06.549Z,41
2022-12-24T07:15:13.701Z,39
2022-12-24T07:16:21.017Z,35
2022-12-24T07:17:27.996Z,34
2022-12-24T07:18:34.993Z,34
2022-12-24T07:19:42.115Z,37
2022-12-24T07:20:49.553Z,29
2022-12-24T07:21:56.369Z,36
2022-12-24T07:23:03.153Z,30
2022-12-24T07:24:10.348Z,30
2022-12-24T07:25:17.361Z,39
2022-12-24T07:26:24.566Z,38
2022-12-24T07:27:31.390Z,33
2022-12-24T07:28:38.524Z,37
2022-12-24T07:29:45.753Z,43
2022-12-24T07:30:52.913Z,37
2022-12-24T07:32:00.029Z,41
2022-12-24T07:33:07.195Z,41
2022-12-24T07:34:14.298Z,44
2022-12-24T07:35:21.482Z,40
2022-12-24T07:36:28.591Z,41
2022-12-24T07:37:35.702Z,35
2022-12-24T07:38:42.641Z,39
2022-12-24T07:39:49.898Z,39
2022-12-24T07:40:57.180Z,36
2022-12-24T07:42:04.222Z,40
2022-12-24T07:43:11.549Z,44
2022-12-24T07:44:19.221Z,41
2022-12-24T07:45:26.296Z,40
2022-12-24T07:46:33.465Z,41
2022-12-24T07:47:40.557Z,43
2022-12-24T07:48:47.835Z,44
2022-12-24T07:49:55.011Z,43
2022-12-24T07:51:02.078Z,46
2022-12-24T07:52:09.227Z,43
2022-12-24T07:53:16.418Z,35
2022-12-24T07:54:23.671Z,42
2022-12-24T07:55:30.928Z,40
2022-12-24T07:56:38.206Z,36
2022-12-24T07:57:45.252Z,35
2022-12-24T07:58:52.433Z,40
2022-12-24T07:59:59.520Z,40
2022-12-24T08:01:06.692Z,37
2022-12-24T08:02:18.027Z,44
2022-12-24T08:03:21.102Z,37
2022-12-24T08:04:27.953Z,37
2022-12-24T08:05:34.969Z,36
2022-12-24T08:06:42.092Z,32
2022-12-24T08:07:49.282Z,34
2022-12-24T08:08:56.453Z,33
2022-12-24T08:10:03.684Z,36
2022-12-24T08:11:11.298Z,33
2022-12-24T08:12:18.449Z,34
2022-12-24T08:13:25.325Z,41
2022-12-24T08:14:32.464Z,33
2022-12-24T08:15:39.901Z,35
2022-12-24T08:16:46.992Z,29
2022-12-24T08:17:53.907Z,29
2022-12-24T08:19:01.084Z,33
2022-12-24T08:20:08.185Z,29
2022-12-24T08:21:15.359Z,34
2022-12-24T08:22:22.786Z,39
2022-12-24T08:23:30.050Z,35
2022-12-24T08:24:37.078Z,40
2022-12-24T08:25:44.301Z,34
2022-12-24T08:26:51.470Z,33
2022-12-24T08:27:58.666Z,37
2022-12-24T08:29:05.826Z,41
2022-12-24T08:30:17.548Z,38
2022-12-24T08:31:20.104Z,36
2022-12-24T08:32:26.898Z,39
2022-12-24T08:33:34.044Z,31
2022-12-24T08:34:41.158Z,34
2022-12-24T08:35:48.435Z,31
2022-12-24T08:36:55.611Z,29
2022-12-24T08:38:02.667Z,26
2022-12-24T08:39:09.875Z,31
2022-12-24T08:40:17.069Z,29
2022-12-24T08:41:24.199Z,28
2022-12-24T08:42:31.200Z,25
2022-12-24T08:43:38.274Z,46
2022-12-24T08:44:45.407Z,43
2022-12-24T08:45:52.645Z,30
2022-12-24T08:46:59.716Z,38
2022-12-24T08:48:07.065Z,37
2022-12-24T08:49:14.006Z,38
2022-12-24T08:50:21.169Z,26
2022-12-24T08:51:27.994Z,29
2022-12-24T08:52:35.138Z,33
2022-12-24T08:53:42.360Z,35
2022-12-24T08:54:49.661Z,38
2022-12-24T08:55:57.299Z,44
2022-12-24T08:57:09.604Z,46
2022-12-24T08:58:16.675Z,33
2022-12-24T08:59:23.750Z,25
2022-12-24T09:00:30.671Z,44
2022-12-24T09:01:37.896Z,41
2022-12-24T09:02:45.052Z,33
2022-12-24T09:03:52.204Z,32
2022-12-24T09:04:59.330Z,25
2022-12-24T09:06:06.379Z,42
2022-12-24T09:07:13.530Z,31
2022-12-24T09:08:20.746Z,31
2022-12-24T09:09:30.385Z,30
2022-12-24T09:10:34.942Z,29
2022-12-24T09:11:41.950Z,36
2022-12-24T09:12:49.150Z,30
2022-12-24T09:13:56.268Z,32
2022-12-24T09:15:07.194Z,37
2022-12-24T09:16:10.949Z,31
2022-12-24T09:17:17.883Z,26
2022-12-24T09:18:24.990Z,26
2022-12-24T09:19:31.801Z,25
2022-12-24T09:20:42.780Z,28
2022-12-24T09:21:46.178Z,33
2022-12-24T09:22:53.291Z,28
2022-12-24T09:24:00.579Z,39
2022-12-24T09:25:07.641Z,35
2022-12-24T09:26:14.777Z,28
2022-12-24T09:27:24.453Z,34
2022-12-24T09:28:31.345Z,29
2022-12-24T09:29:38.604Z,36
2022-12-24T09:30:45.670Z,33
2022-12-24T09:32:03.277Z,30
2022-12-24T09:33:10.258Z,34
2022-12-24T09:34:17.444Z,26
2022-12-24T09:35:24.909Z,33
2022-12-24T09:36:32.035Z,33
2022-12-24T09:37:39.206Z,32
2022-12-24T09:38:46.305Z,35
2022-12-24T09:39:55.184Z,29
2022-12-24T09:41:07.034Z,36
2022-12-24T09:42:14.369Z,33
2022-12-24T09:43:31.980Z,39
2022-12-24T09:44:39.581Z,43
2022-12-24T09:45:54.972Z,39
2022-12-24T09:47:12.483Z,38
2022-12-24T09:48:29.917Z,39
2022-12-24T09:49:37.345Z,50
2022-12-24T09:50:45.170Z,54
2022-12-24T09:52:02.583Z,48
2022-12-24T09:53:09.759Z,51
2022-12-24T09:54:19.503Z,47
2022-12-24T09:55:28.953Z,49
2022-12-24T09:56:41.225Z,45
2022-12-24T09:57:49.252Z,54
2022-12-24T09:58:56.545Z,44
2022-12-24T10:00:03.831Z,49
2022-12-24T10:01:16.230Z,50
2022-12-24T10:02:23.339Z,53
2022-12-24T10:03:30.126Z,55
2022-12-24T10:04:37.394Z,52
2022-12-24T10:05:44.442Z,53
2022-12-24T10:07:01.798Z,60
2022-12-24T10:08:19.239Z,57
2022-12-24T10:09:34.713Z,56
2022-12-24T10:10:44.597Z,66
2022-12-24T10:11:54.488Z,58
2022-12-24T10:13:09.813Z,63
2022-12-24T10:14:22.353Z,56
2022-12-24T10:15:40.387Z,66
2022-12-24T10:16:58.689Z,65
2022-12-24T10:18:10.947Z,61
2022-12-24T10:19:20.577Z,69
2022-12-24T10:20:27.445Z,63
2022-12-24T10:21:34.615Z,67
2022-12-24T10:22:50.186Z,64
2022-12-24T10:23:57.921Z,61
2022-12-24T10:25:09.850Z,63
2022-12-24T10:26:24.821Z,62
2022-12-24T10:27:34.773Z,62
2022-12-24T10:28:43.846Z,72
2022-12-24T10:29:52.217Z,71
2022-12-24T10:31:07.272Z,72
2022-12-24T10:32:14.082Z,68
2022-12-24T10:33:30.044Z,68
2022-12-24T10:34:37.319Z,73
2022-12-24T10:35:47.050Z,70
2022-12-24T10:36:55.089Z,66
2022-12-24T10:38:02.385Z,70
2022-12-24T10:39:10.730Z,70
2022-12-24T10:40:20.841Z,67
2022-12-24T10:41:36.047Z,69
2022-12-24T10:42:48.297Z,69
2022-12-24T10:43:50.464Z,66
2022-12-24T10:45:03.488Z,74
2022-12-24T10:46:10.699Z,73
2022-12-24T10:47:18.040Z,69
2022-12-24T10:48:25.336Z,73
2022-12-24T10:49:32.413Z,70
2022-12-24T10:50:47.632Z,67
2022-12-24T10:51:59.946Z,73
2022-12-24T10:53:07.220Z,69
2022-12-24T10:54:26.449Z,73
2022-12-24T10:55:48.733Z,75
2022-12-24T10:56:55.920Z,67
2022-12-24T10:58:03.076Z,67
2022-12-24T10:59:10.240Z,69
2022-12-24T11:00:28.458Z,50
2022-12-24T11:01:38.818Z,53
2022-12-24T11:02:45.878Z,52
2022-12-24T11:03:53.137Z,52
2022-12-24T11:05:05.489Z,50
2022-12-24T11:06:17.592Z,46
2022-12-24T11:07:24.923Z,42
2022-12-24T11:08:32.017Z,35
2022-12-24T11:09:40.101Z,37
2022-12-24T11:10:46.907Z,40
2022-12-24T11:12:40.446Z,27
2022-12-24T11:13:47.399Z,25
2022-12-24T11:14:54.955Z,25
2022-12-24T11:16:07.474Z,33
2022-12-24T11:17:19.717Z,33
2022-12-24T11:20:00.588Z,33
2022-12-24T11:21:08.848Z,30
2022-12-24T11:22:15.712Z,31
2022-12-24T11:23:22.819Z,30
2022-12-24T11:24:29.696Z,30
2022-12-24T11:25:39.392Z,30
2022-12-24T11:26:46.504Z,40
2022-12-24T11:27:54.165Z,29
2022-12-24T11:29:01.512Z,46
2022-12-24T11:30:11.988Z,34
2022-12-24T11:31:19.963Z,27
2022-12-24T11:32:26.691Z,26
2022-12-24T11:33:33.829Z,31
2022-12-24T11:34:48.675Z,25
2022-12-24T11:35:58.924Z,27
2022-12-24T11:37:14.042Z,39
2022-12-24T11:38:24.489Z,41
2022-12-24T11:39:31.359Z,39
2022-12-24T11:40:38.670Z,30
2022-12-24T11:41:45.727Z,33
2022-12-24T11:42:52.788Z,33
2022-12-24T11:44:00.079Z,30
2022-12-24T11:45:09.731Z,32
2022-12-24T11:50:17.975Z,25
2022-12-24T11:51:26.838Z,28
2022-12-24T11:52:34.058Z,29
2022-12-24T11:53:42.247Z,30
2022-12-24T11:54:59.611Z,43
2022-12-24T11:56:17.786Z,34
2022-12-24T11:57:29.911Z,32
2022-12-24T11:58:37.325Z,32
2022-12-24T11:59:47.477Z,29
2022-12-24T12:00:54.604Z,31
2022-12-24T12:02:11.938Z,34
2022-12-24T12:03:27.018Z,29
2022-12-24T12:04:35.203Z,25
2022-12-24T12:05:43.206Z,27
2022-12-24T12:06:50.294Z,28
2022-12-24T12:07:57.390Z,28
2022-12-24T12:09:12.683Z,25
2022-12-24T12:10:30.261Z,25
2022-12-24T12:11:37.274Z,26
2022-12-24T12:12:44.515Z,33
2022-12-24T12:13:51.635Z,38
2022-12-24T12:14:58.842Z,31
2022-12-24T12:16:06.185Z,27
2022-12-24T12:17:19.151Z,31
2022-12-24T12:18:32.166Z,29
2022-12-24T12:19:39.688Z,28
2022-12-24T12:20:50.913Z,26
2022-12-24T12:21:57.904Z,31
2022-12-24T12:23:05.153Z,38
2022-12-24T12:24:25.517Z,31
2022-12-24T12:25:29.203Z,27
2022-12-24T12:26:41.566Z,32
2022-12-24T12:27:48.570Z,32
2022-12-24T12:28:55.854Z,33
2022-12-24T12:30:08.158Z,38
2022-12-24T12:31:18.670Z,28
2022-12-24T12:40:09.885Z,28
2022-12-24T12:41:17.303Z,31
2022-12-24T12:42:34.808Z,41
2022-12-24T12:43:41.926Z,34
2022-12-24T12:45:00.386Z,33
2022-12-24T12:54:00.973Z,33
2022-12-24T12:55:24.039Z,41
2022-12-24T12:56:30.830Z,26
2022-12-24T12:57:38.050Z,35
2022-12-24T12:58:45.254Z,29
2022-12-24T13:00:00.387Z,31
2022-12-24T13:01:07.883Z,33
2022-12-24T13:02:25.126Z,30
2022-12-24T13:03:38.591Z,28
2022-12-24T14:10:50.523Z,44
2022-12-24T14:12:00.376Z,32
2022-12-24T14:13:07.557Z,38
2022-12-24T14:14:24.993Z,37
2022-12-24T14:15:37.643Z,31
2022-12-24T14:20:22.323Z,48
2022-12-24T14:21:29.427Z,47
2022-12-24T14:22:36.508Z,49
2022-12-24T14:23:43.678Z,50
2022-12-24T14:24:55.992Z,50
2022-12-24T14:26:05.683Z,50
2022-12-24T14:27:13.895Z,50
2022-12-24T14:28:26.992Z,50
2022-12-24T14:29:34.091Z,74
2022-12-24T14:38:40.487Z,74
2022-12-24T14:39:47.487Z,108
2022-12-24T14:40:54.675Z,105
2022-12-24T14:42:08.643Z,112
2022-12-24T14:43:26.308Z,106
2022-12-24T14:54:59.217Z,71
2022-12-24T14:56:06.384Z,71
2022-12-24T14:57:13.511Z,69
2022-12-24T14:58:28.793Z,68
2022-12-24T14:59:41.303Z,64
2022-12-24T15:14:41.058Z,64
2022-12-24T15:15:52.178Z,64
2022-12-24T15:16:55.340Z,62
2022-12-24T15:18:07.632Z,56
2022-12-24T15:20:14.238Z,56
2022-12-24T15:21:21.499Z,54
2022-12-24T15:22:34.609Z,54
2022-12-24T15:23:41.580Z,54
2022-12-24T15:24:48.752Z,54
2022-12-24T15:29:03.505Z,54
2022-12-24T15:30:08.255Z,54
2022-12-24T15:31:19.013Z,54
2022-12-24T15:32:25.723Z,79
2022-12-24T15:37:23.727Z,62
2022-12-24T15:38:30.800Z,62
2022-12-24T15:39:43.897Z,62
2022-12-24T15:40:59.234Z,62
2022-12-24T15:42:06.423Z,62
2022-12-24T15:46:13.017Z,86
2022-12-24T15:47:24.965Z,70
2022-12-24T15:48:31.892Z,70
2022-12-24T15:49:39.116Z,63
2022-12-24T16:01:19.725Z,54
2022-12-24T16:02:29.893Z,63
2022-12-24T16:03:41.893Z,61
2022-12-24T16:04:54.046Z,64
2022-12-24T16:06:01.271Z,73
2022-12-24T16:07:21.837Z,71
2022-12-24T16:08:29.060Z,72
2022-12-24T16:09:36.527Z,70
2022-12-24T16:10:46.777Z,65
2022-12-24T16:12:04.432Z,71
2022-12-24T16:13:16.644Z,66
2022-12-24T16:14:23.880Z,67
2022-12-24T16:15:31.354Z,72
2022-12-24T16:16:38.480Z,84
2022-12-24T16:17:45.614Z,84
2022-12-24T16:18:52.761Z,84
2022-12-24T16:19:59.904Z,84
2022-12-24T16:21:06.985Z,84
2022-12-24T16:22:13.784Z,84
2022-12-24T16:23:26.030Z,89
2022-12-24T16:24:38.115Z,83
2022-12-24T16:25:45.166Z,81
2022-12-24T16:26:52.356Z,93
2022-12-24T16:28:00.720Z,95
2022-12-24T16:29:06.675Z,87
2022-12-24T16:30:13.864Z,94
2022-12-24T16:31:21.037Z,95
2022-12-24T16:32:33.533Z,97
2022-12-24T16:33:40.662Z,93
2022-12-24T16:34:47.856Z,98
2022-12-24T16:35:55.828Z,89
2022-12-24T16:37:03.736Z,100
2022-12-24T16:38:10.892Z,104
2022-12-24T16:39:18.018Z,103
2022-12-24T16:40:28.361Z,108
2022-12-24T16:41:34.548Z,113
2022-12-24T16:43:19.418Z,121
2022-12-24T16:44:31.589Z,109
2022-12-24T16:45:38.717Z,105
2022-12-24T16:46:46.094Z,110
2022-12-24T16:47:53.160Z,105
2022-12-24T16:49:00.191Z,100
2022-12-24T16:50:07.411Z,113
2022-12-24T16:51:14.436Z,103
2022-12-24T16:52:21.662Z,99
2022-12-24T16:58:26.603Z,99
2022-12-24T16:59:33.704Z,86
2022-12-24T17:00:41.052Z,87
2022-12-24T17:01:48.261Z,88
2022-12-24T17:02:55.399Z,87
2022-12-24T17:25:06.251Z,84
2022-12-24T17:26:15.208Z,87
2022-12-24T17:27:20.660Z,93
2022-12-24T17:28:27.681Z,93
2022-12-24T17:29:34.620Z,97
2022-12-24T17:30:41.836Z,117
2022-12-24T17:31:48.960Z,99
2022-12-24T17:32:56.333Z,103
2022-12-24T17:34:03.332Z,106
2022-12-24T17:39:34.032Z,106
2022-12-24T17:40:40.947Z,98
2022-12-24T17:41:48.075Z,94
2022-12-24T17:42:55.439Z,93
2022-12-24T17:44:02.462Z,91
2022-12-24T17:51:45.766Z,113
2022-12-24T17:52:50.944Z,105
2022-12-24T17:53:57.916Z,97
2022-12-24T17:55:05.127Z,96
2022-12-24T17:56:36.027Z,93
2022-12-24T17:57:43.317Z,86
2022-12-24T17:58:50.279Z,95
2022-12-24T17:59:57.434Z,115
2022-12-24T18:01:04.725Z,91
2022-12-24T18:02:54.606Z,109
2022-12-24T18:04:01.681Z,104
2022-12-24T18:05:08.759Z,109
2022-12-24T18:06:15.916Z,105
2022-12-24T18:07:23.063Z,99
2022-12-24T18:08:31.783Z,89
2022-12-24T18:09:38.651Z,102
2022-12-24T18:10:45.795Z,91
2022-12-24T18:11:53.158Z,106
2022-12-24T18:13:00.198Z,95
2022-12-24T18:14:17.285Z,103
2022-12-24T18:15:24.195Z,92
2022-12-24T18:16:31.639Z,93
2022-12-24T18:17:38.775Z,101
2022-12-24T18:18:45.861Z,90
2022-12-24T18:20:46.185Z,106
2022-12-24T18:21:48.007Z,90
2022-12-24T18:22:55.188Z,91
2022-12-24T18:24:02.331Z,99
2022-12-24T18:25:09.455Z,91
2022-12-24T18:26:23.478Z,119
2022-12-24T18:27:30.496Z,118
2022-12-24T18:28:37.294Z,101
2022-12-24T18:29:44.668Z,107
2022-12-24T18:30:51.618Z,100
2022-12-24T18:32:00.862Z,114
2022-12-24T18:33:08.014Z,94
2022-12-24T18:34:15.189Z,97
2022-12-24T18:35:22.333Z,96
2022-12-24T18:36:36.521Z,109
2022-12-24T18:37:43.471Z,109
2022-12-24T18:38:50.729Z,105
2022-12-24T18:39:57.811Z,107
2022-12-24T18:41:05.258Z,111
2022-12-24T18:42:12.147Z,112
2022-12-24T18:43:19.354Z,106
2022-12-24T18:44:26.529Z,103
2022-12-24T18:45:33.364Z,86
2022-12-24T18:47:04.795Z,88
2022-12-24T18:48:11.728Z,83
2022-12-24T18:49:18.434Z,79
2022-12-24T18:50:25.661Z,77
2022-12-24T18:51:32.569Z,70
2022-12-24T18:52:39.610Z,78
2022-12-24T18:53:46.861Z,92
2022-12-24T18:54:53.963Z,81
2022-12-24T18:56:01.131Z,67
2022-12-24T18:57:35.733Z,80
2022-12-24T18:58:42.948Z,74
2022-12-24T18:59:50.048Z,79
2022-12-24T19:00:57.160Z,65
2022-12-24T19:02:04.464Z,51
2022-12-24T19:03:15.889Z,64
2022-12-24T19:04:19.614Z,50
2022-12-24T19:05:26.816Z,47
2022-12-24T19:06:33.634Z,47
2022-12-24T19:07:43.852Z,52
2022-12-24T19:09:00.079Z,50
2022-12-24T19:09:58.123Z,60
2022-12-24T19:11:05.303Z,44
2022-12-24T19:12:12.091Z,62
2022-12-24T19:13:20.882Z,43
2022-12-24T19:14:27.994Z,65
2022-12-24T19:15:36.010Z,36
2022-12-24T19:16:42.499Z,60